createdAt,value
2023-04-12T00:00:00.550Z,2.78
2023-04-12T00:02:27.450Z,2.76
2023-04-12T00:04:57.924Z,2.75
2023-04-12T00:07:24.869Z,2.79
2023-04-12T00:09:51.602Z,2.65
2023-04-12T00:12:19.220Z,2.92
2023-04-12T00:14:46.167Z,2.96
2023-04-12T00:17:12.639Z,2.93
2023-04-12T00:19:42.735Z,2.78
2023-04-12T00:22:09.534Z,2.60
2023-04-12T00:24:35.994Z,2.55
2023-04-12T00:27:02.392Z,2.74
2023-04-12T00:29:28.884Z,2.60
2023-04-12T00:31:55.211Z,2.64
2023-04-12T00:34:21.556Z,2.66
2023-04-12T00:36:47.895Z,2.66
2023-04-12T00:39:14.221Z,2.56
2023-04-12T00:41:40.649Z,2.76
2023-04-12T00:44:08.807Z,2.57
2023-04-12T00:46:35.519Z,2.80
2023-04-12T00:49:02.811Z,2.61
2023-04-12T00:51:33.246Z,2.62
2023-04-12T00:54:01.111Z,2.45
2023-04-12T00:56:28.574Z,2.36
2023-04-12T00:58:55.740Z,2.43
2023-04-12T01:01:22.179Z,2.50
2023-04-12T01:03:50.603Z,2.41
2023-04-12T01:06:29.797Z,2.41
2023-04-12T01:09:00.585Z,2.50
2023-04-12T01:11:26.887Z,2.35
2023-04-12T01:14:19.660Z,2.57
2023-04-12T01:16:51.607Z,2.43
2023-04-12T01:19:30.014Z,2.54
2023-04-12T01:22:06.037Z,2.35
2023-04-12T01:24:41.629Z,2.65
2023-04-12T01:27:13.546Z,2.42
2023-04-12T01:29:40.539Z,2.54
2023-04-12T01:32:09.167Z,2.51
2023-04-12T01:34:37.091Z,2.63
2023-04-12T01:37:03.737Z,2.60
2023-04-12T01:39:32.382Z,2.58
2023-04-12T01:41:59.363Z,2.65
2023-04-12T01:44:25.767Z,2.57
2023-04-12T01:46:53.026Z,2.56
2023-04-12T01:49:19.472Z,2.42
2023-04-12T01:51:45.814Z,2.58
2023-04-12T01:54:13.925Z,2.48
2023-04-12T01:56:41.818Z,2.57
2023-04-12T01:59:09.165Z,2.55
2023-04-12T02:01:35.748Z,2.62
2023-04-12T02:04:04.583Z,2.54
2023-04-12T02:06:31.895Z,2.49
2023-04-12T02:08:59.952Z,2.56
2023-04-12T02:11:26.359Z,2.53
2023-04-12T02:13:52.693Z,2.47
2023-04-12T02:16:20.564Z,2.58
2023-04-12T02:18:47.609Z,2.67
2023-04-12T02:21:14.032Z,2.48
2023-04-12T02:23:41.816Z,2.52
2023-04-12T02:26:08.182Z,2.71
2023-04-12T02:28:34.748Z,2.78
2023-04-12T02:31:02.198Z,2.75
2023-04-12T02:33:29.125Z,2.77
2023-04-12T02:35:57.343Z,2.71
2023-04-12T02:38:23.826Z,2.59
2023-04-12T02:40:50.221Z,2.73
2023-04-12T02:43:16.751Z,2.48
2023-04-12T02:45:43.130Z,2.59
2023-04-12T02:48:09.580Z,2.63
2023-04-12T02:50:36.893Z,2.48
2023-04-12T02:53:03.252Z,2.60
2023-04-12T02:55:30.580Z,2.66
2023-04-12T02:57:57.364Z,2.57
2023-04-12T03:00:23.899Z,2.59
2023-04-12T03:02:53.362Z,2.55
2023-04-12T03:05:20.068Z,2.73
2023-04-12T03:07:46.686Z,2.68
2023-04-12T03:10:13.285Z,2.57
2023-04-12T03:12:39.761Z,2.63
2023-04-12T03:15:06.432Z,2.48
2023-04-12T03:17:32.826Z,2.55
2023-04-12T03:20:07.994Z,2.74
2023-04-12T03:22:34.324Z,2.74
2023-04-12T03:25:01.467Z,2.72
2023-04-12T03:27:27.799Z,2.79
2023-04-12T03:29:54.144Z,2.87
2023-04-12T03:32:21.244Z,2.87
2023-04-12T03:34:47.602Z,2.89
2023-04-12T03:37:13.968Z,2.79
2023-04-12T03:39:41.347Z,2.96
2023-04-12T03:42:10.209Z,2.93
2023-04-12T03:44:43.167Z,2.91
2023-04-12T03:47:09.516Z,2.95
2023-04-12T03:49:38.407Z,2.98
2023-04-12T03:52:06.031Z,2.96
2023-04-12T03:54:32.525Z,2.97
2023-04-12T03:56:59.067Z,2.96
2023-04-12T03:59:25.523Z,2.87
2023-04-12T04:01:53.142Z,3.03
2023-04-12T04:04:19.760Z,3.01
2023-04-12T04:06:46.958Z,2.92
2023-04-12T04:09:13.310Z,3.06
2023-04-12T04:11:39.634Z,2.96
2023-04-12T04:14:06.137Z,2.90
2023-04-12T04:16:32.727Z,2.98
2023-04-12T04:18:59.143Z,3.16
2023-04-12T04:21:26.533Z,2.98
2023-04-12T04:23:52.957Z,3.15
2023-04-12T04:26:20.288Z,3.13
2023-04-12T04:28:47.359Z,3.13
2023-04-12T04:31:13.919Z,2.97
2023-04-12T04:33:41.665Z,2.91
2023-04-12T04:36:09.245Z,3.11
2023-04-12T04:38:36.256Z,3.12
2023-04-12T04:41:03.776Z,3.15
2023-04-12T04:43:30.407Z,3.24
2023-04-12T04:45:57.554Z,3.14
2023-04-12T04:48:24.205Z,3.15
2023-04-12T04:50:54.287Z,3.19
2023-04-12T04:53:22.498Z,3.22
2023-04-12T04:55:49.012Z,3.32
2023-04-12T04:58:16.190Z,3.39
2023-04-12T05:00:44.931Z,3.41
2023-04-12T05:03:11.958Z,3.51
2023-04-12T05:05:38.540Z,3.57
2023-04-12T05:08:04.991Z,3.65
2023-04-12T05:10:31.416Z,3.68
2023-04-12T05:12:58.081Z,3.75
2023-04-12T05:15:24.398Z,3.74
2023-04-12T05:17:51.072Z,3.78
2023-04-12T05:20:18.419Z,3.86
2023-04-12T05:22:44.758Z,3.88
2023-04-12T05:25:11.109Z,3.79
2023-04-12T05:27:37.431Z,4.08
2023-04-12T05:30:04.090Z,3.99
2023-04-12T05:32:31.148Z,3.87
2023-04-12T05:34:58.780Z,4.05
2023-04-12T05:37:26.286Z,4.15
2023-04-12T05:39:52.734Z,4.14
2023-04-12T05:42:19.077Z,4.20
2023-04-12T05:44:47.423Z,4.29
2023-04-12T05:47:14.922Z,4.32
2023-04-12T05:49:41.269Z,4.40
2023-04-12T05:52:07.600Z,4.45
2023-04-12T05:54:34.036Z,4.53
2023-04-12T05:57:00.376Z,4.65
2023-04-12T05:59:26.753Z,4.70
2023-04-12T06:01:53.138Z,4.84
2023-04-12T06:04:19.897Z,4.92
2023-04-12T06:06:47.474Z,4.93
2023-04-12T06:09:15.156Z,4.85
2023-04-12T06:11:41.486Z,5.05
2023-04-12T06:14:09.049Z,4.99
2023-04-12T06:16:36.559Z,5.21
2023-04-12T06:19:02.966Z,5.18
2023-04-12T06:21:29.640Z,5.31
2023-04-12T06:23:56.070Z,5.29
2023-04-12T06:26:22.478Z,5.37
2023-04-12T06:28:50.830Z,5.43
2023-04-12T06:31:17.332Z,5.51
2023-04-12T06:33:43.814Z,5.56
2023-04-12T06:36:11.526Z,5.61
2023-04-12T06:38:38.332Z,5.66
2023-04-12T06:41:04.790Z,5.68
2023-04-12T06:43:31.774Z,5.97
2023-04-12T06:45:58.463Z,5.97
2023-04-12T06:48:24.868Z,5.89
2023-04-12T06:50:51.273Z,5.96
2023-04-12T06:53:17.597Z,5.93
2023-04-12T06:55:44.225Z,6.11
2023-04-12T06:58:10.526Z,6.06
2023-04-12T07:00:37.747Z,6.09
2023-04-12T07:03:04.195Z,6.15
2023-04-12T07:05:30.548Z,6.16
2023-04-12T07:07:58.009Z,6.26
2023-04-12T07:10:24.347Z,6.10
2023-04-12T07:12:52.023Z,6.07
2023-04-12T07:15:18.562Z,6.11
2023-04-12T07:17:45.186Z,6.03
2023-04-12T07:20:11.922Z,6.03
2023-04-12T07:22:38.477Z,6.18
2023-04-12T07:25:09.901Z,6.01
2023-04-12T07:27:36.543Z,6.27
2023-04-12T07:30:04.263Z,6.19
2023-04-12T07:32:30.764Z,6.28
2023-04-12T07:34:57.285Z,6.01
2023-04-12T07:37:23.669Z,6.24
2023-04-12T07:39:50.165Z,6.22
2023-04-12T07:42:16.768Z,6.23
2023-04-12T07:44:43.250Z,6.16
2023-04-12T07:47:09.587Z,6.25
2023-04-12T07:49:37.355Z,6.27
2023-04-12T07:52:03.846Z,6.17
2023-04-12T07:54:30.357Z,6.14
2023-04-12T07:57:00.131Z,6.23
2023-04-12T07:59:26.729Z,6.44
2023-04-12T08:01:53.123Z,6.21
2023-04-12T08:04:19.749Z,6.37
2023-04-12T08:06:46.358Z,6.40
2023-04-12T08:09:15.399Z,6.43
2023-04-12T08:11:41.757Z,6.59
2023-04-12T08:14:08.338Z,6.75
2023-04-12T08:16:34.799Z,6.99
2023-04-12T08:19:01.410Z,6.99
2023-04-12T08:21:27.785Z,6.96
2023-04-12T08:23:54.210Z,7.25
2023-04-12T08:26:21.217Z,7.32
2023-04-12T08:28:48.606Z,7.53
2023-04-12T08:31:15.465Z,7.61
2023-04-12T08:33:41.825Z,7.71
2023-04-12T08:36:08.409Z,7.86
2023-04-12T08:38:44.838Z,7.82
2023-04-12T08:41:12.567Z,7.84
2023-04-12T08:43:42.074Z,7.90
2023-04-12T08:46:08.961Z,7.92
2023-04-12T08:48:36.201Z,7.79
2023-04-12T08:51:02.839Z,7.86
2023-04-12T08:53:29.176Z,7.90
2023-04-12T08:55:55.697Z,7.92
2023-04-12T08:58:24.919Z,8.02
2023-04-12T09:00:51.469Z,7.94
2023-04-12T09:03:18.187Z,7.88
2023-04-12T09:05:44.799Z,7.81
2023-04-12T09:08:12.073Z,7.94
2023-04-12T09:10:39.631Z,7.77
2023-04-12T09:13:06.551Z,7.52
2023-04-12T09:15:33.975Z,7.92
2023-04-12T09:18:04.106Z,7.90
2023-04-12T09:20:30.648Z,7.69
2023-04-12T09:22:57.149Z,7.83
2023-04-12T09:25:36.174Z,7.98
2023-04-12T09:28:02.493Z,7.70
2023-04-12T09:30:28.845Z,8.00
2023-04-12T09:32:55.787Z,7.98
2023-04-12T09:35:35.585Z,7.62
2023-04-12T09:38:09.049Z,7.86
2023-04-12T09:40:36.408Z,7.99
2023-04-12T09:43:03.775Z,8.15
2023-04-12T09:45:33.821Z,7.99
2023-04-12T09:48:00.270Z,8.18
2023-04-12T09:50:28.486Z,8.07
2023-04-12T09:52:55.600Z,8.02
2023-04-12T09:55:22.747Z,8.14
2023-04-12T09:57:50.593Z,8.22
2023-04-12T10:00:18.169Z,8.17
2023-04-12T10:02:47.165Z,8.37
2023-04-12T10:05:15.636Z,8.45
2023-04-12T10:07:42.706Z,8.20
2023-04-12T10:10:09.761Z,8.41
2023-04-12T10:12:37.233Z,8.38
2023-04-12T10:15:07.422Z,8.53
2023-04-12T10:17:35.147Z,8.58
2023-04-12T10:20:02.984Z,8.52
2023-04-12T10:22:29.362Z,8.34
2023-04-12T10:24:55.804Z,8.43
2023-04-12T10:27:26.362Z,8.37
2023-04-12T10:29:52.801Z,8.45
2023-04-12T10:32:23.089Z,8.52
2023-04-12T10:34:52.441Z,8.57
2023-04-12T10:37:18.851Z,8.59
2023-04-12T10:39:51.387Z,8.68
2023-04-12T10:42:29.271Z,8.76
2023-04-12T10:44:58.735Z,8.78
2023-04-12T10:47:52.989Z,8.84
2023-04-12T10:50:21.491Z,8.97
2023-04-12T10:53:06.904Z,8.91
2023-04-12T10:55:33.534Z,8.97
2023-04-12T10:58:00.015Z,8.94
2023-04-12T11:00:46.545Z,8.87
2023-04-12T11:03:13.979Z,8.68
2023-04-12T11:06:09.633Z,9.01
2023-04-12T11:08:46.471Z,9.33
2023-04-12T11:11:20.175Z,9.29
2023-04-12T11:13:46.692Z,9.36
2023-04-12T11:16:13.361Z,9.50
2023-04-12T11:18:39.909Z,9.31
2023-04-12T11:21:06.537Z,9.41
2023-04-12T11:23:33.113Z,9.40
2023-04-12T11:25:59.611Z,9.52
2023-04-12T11:28:29.051Z,9.41
2023-04-12T11:30:58.356Z,9.55
2023-04-12T11:33:50.972Z,9.68
2023-04-12T11:36:17.592Z,9.82
2023-04-12T11:38:46.131Z,9.75
2023-04-12T11:41:14.567Z,10.13
2023-04-12T11:43:40.991Z,10.07
2023-04-12T11:46:07.520Z,10.19
2023-04-12T11:48:34.045Z,10.23
2023-04-12T11:51:10.994Z,9.94
2023-04-12T11:53:37.922Z,9.91
2023-04-12T11:56:04.376Z,9.64
2023-04-12T11:58:30.792Z,9.43
2023-04-12T12:00:58.497Z,9.66
2023-04-12T12:03:25.241Z,9.58
2023-04-12T12:05:52.295Z,9.65
2023-04-12T12:08:19.760Z,9.79
2023-04-12T12:13:18.591Z,9.81
2023-04-12T12:15:45.863Z,9.79
2023-04-12T12:18:12.462Z,9.90
2023-04-12T12:20:59.564Z,9.55
2023-04-12T12:23:29.964Z,9.66
2023-04-12T12:26:10.588Z,9.71
2023-04-12T12:28:44.811Z,9.87
2023-04-12T12:31:12.444Z,9.81
2023-04-12T12:33:46.435Z,9.97
2023-04-12T12:36:17.027Z,9.91
2023-04-12T12:38:43.378Z,9.77
2023-04-12T12:41:16.876Z,9.86
2023-04-12T12:43:52.792Z,9.70
2023-04-12T12:46:20.027Z,9.67
2023-04-12T12:48:47.273Z,9.42
2023-04-12T12:51:17.688Z,9.50
2023-04-12T12:53:44.209Z,9.69
2023-04-12T12:56:11.641Z,9.62
2023-04-12T12:58:40.721Z,9.70
2023-04-12T13:01:07.995Z,9.80
2023-04-12T13:03:34.635Z,9.62
2023-04-12T13:06:01.128Z,9.38
2023-04-12T13:08:35.099Z,9.37
2023-04-12T13:11:01.483Z,9.44
2023-04-12T13:13:27.923Z,9.37
2023-04-12T13:15:56.402Z,9.38
2023-04-12T13:18:22.779Z,9.57
2023-04-12T13:20:49.290Z,9.56
2023-04-12T13:23:16.688Z,9.53
2023-04-12T13:25:43.091Z,9.41
2023-04-12T13:28:09.820Z,9.54
2023-04-12T13:30:36.297Z,9.44
2023-04-12T13:33:02.753Z,9.69
2023-04-12T13:35:29.203Z,9.59
2023-04-12T13:37:55.845Z,9.70
2023-04-12T13:40:22.275Z,9.75
2023-04-12T13:42:48.692Z,9.39
2023-04-12T13:45:16.151Z,9.38
2023-04-12T13:47:42.910Z,9.52
2023-04-12T13:50:09.600Z,9.74
2023-04-12T13:52:37.097Z,9.68
2023-04-12T13:55:07.908Z,9.87
2023-04-12T13:57:35.536Z,10.02
2023-04-12T14:00:01.883Z,10.01
2023-04-12T14:02:30.726Z,9.83
2023-04-12T14:04:57.825Z,9.78
2023-04-12T14:07:24.652Z,9.62
2023-04-12T14:09:51.354Z,9.64
2023-04-12T14:12:17.764Z,9.90
2023-04-12T14:14:44.504Z,10.07
2023-04-12T14:17:11.468Z,10.05
2023-04-12T14:19:39.592Z,9.97
2023-04-12T14:22:06.154Z,9.95
2023-04-12T14:24:32.741Z,9.87
2023-04-12T14:27:00.989Z,10.18
2023-04-12T14:29:27.464Z,10.13
2023-04-12T14:31:53.899Z,9.87
2023-04-12T14:34:21.758Z,10.02
2023-04-12T14:36:48.279Z,9.94
2023-04-12T14:39:16.082Z,9.90
2023-04-12T14:41:43.272Z,9.97
2023-04-12T14:44:09.894Z,10.07
2023-04-12T14:46:37.382Z,9.97
2023-04-12T14:49:03.872Z,10.11
2023-04-12T14:51:30.422Z,10.10
2023-04-12T14:53:57.661Z,10.45
2023-04-12T14:56:27.847Z,10.29
2023-04-12T14:58:56.055Z,10.43
2023-04-12T15:01:23.629Z,10.37
2023-04-12T15:03:51.921Z,10.48
2023-04-12T15:06:19.387Z,10.48
2023-04-12T15:08:47.110Z,10.61
2023-04-12T15:11:13.578Z,10.68
2023-04-12T15:13:42.322Z,10.77
2023-04-12T15:16:09.291Z,10.59
2023-04-12T15:18:39.401Z,10.93
2023-04-12T15:21:08.174Z,10.76
2023-04-12T15:23:35.670Z,10.82
2023-04-12T15:26:02.511Z,10.72
2023-04-12T15:28:29.207Z,10.68
2023-04-12T15:30:55.683Z,10.92
2023-04-12T15:33:22.206Z,10.69
2023-04-12T15:35:49.435Z,10.55
2023-04-12T15:38:23.373Z,10.58
2023-04-12T15:40:57.385Z,10.74
2023-04-12T15:43:24.164Z,10.80
2023-04-12T15:45:53.265Z,10.81
2023-04-12T15:48:20.673Z,10.92
2023-04-12T15:50:48.593Z,10.98
2023-04-12T15:53:19.299Z,10.81
2023-04-12T15:55:46.996Z,10.76
2023-04-12T15:58:14.299Z,10.67
2023-04-12T16:00:42.841Z,10.72
2023-04-12T16:03:09.897Z,10.73
2023-04-12T16:05:36.913Z,10.72
2023-04-12T16:08:03.914Z,10.76
2023-04-12T16:10:30.378Z,10.81
2023-04-12T16:12:57.287Z,10.80
2023-04-12T16:15:23.851Z,10.96
2023-04-12T16:17:53.255Z,10.75
2023-04-12T16:20:22.777Z,10.79
2023-04-12T16:22:50.295Z,10.84
2023-04-12T16:25:17.036Z,10.82
2023-04-12T16:27:43.732Z,10.90
2023-04-12T16:30:12.040Z,10.77
2023-04-12T16:32:38.612Z,10.76
2023-04-12T16:35:05.842Z,10.93
2023-04-12T16:37:32.377Z,10.97
2023-04-12T16:40:01.086Z,11.02
2023-04-12T16:42:28.371Z,10.89
2023-04-12T16:44:54.801Z,11.10
2023-04-12T16:47:22.003Z,11.05
2023-04-12T16:49:48.505Z,10.95
2023-04-12T16:52:15.618Z,11.06
2023-04-12T16:54:42.086Z,10.85
2023-04-12T16:57:08.670Z,10.85
2023-04-12T16:59:35.034Z,11.00
2023-04-12T17:02:01.978Z,10.93
2023-04-12T17:04:28.716Z,10.91
2023-04-12T17:06:55.356Z,10.77
2023-04-12T17:09:22.046Z,11.03
2023-04-12T17:11:48.780Z,11.00
2023-04-12T17:14:15.235Z,10.91
2023-04-12T17:16:42.422Z,10.92
2023-04-12T17:19:10.574Z,10.87
2023-04-12T17:21:41.149Z,10.93
2023-04-12T17:24:07.857Z,10.80
2023-04-12T17:26:34.546Z,11.00
2023-04-12T17:29:01.169Z,10.84
2023-04-12T17:31:29.340Z,10.64
2023-04-12T17:33:56.162Z,10.77
2023-04-12T17:36:22.753Z,10.76
2023-04-12T17:38:51.588Z,10.57
2023-04-12T17:41:17.936Z,10.83
2023-04-12T17:43:45.550Z,10.85
2023-04-12T17:46:11.963Z,10.71
2023-04-12T17:48:38.391Z,10.72
2023-04-12T17:51:06.676Z,10.57
2023-04-12T17:53:33.866Z,10.52
2023-04-12T17:56:00.422Z,10.49
2023-04-12T17:58:27.785Z,10.54
2023-04-12T18:00:54.261Z,10.52
2023-04-12T18:03:21.378Z,10.46
2023-04-12T18:05:48.059Z,10.59
2023-04-12T18:08:16.661Z,10.57
2023-04-12T18:10:43.211Z,10.57
2023-04-12T18:13:09.898Z,10.52
2023-04-12T18:15:36.323Z,10.56
2023-04-12T18:18:04.535Z,10.55
2023-04-12T18:20:31.306Z,10.53
2023-04-12T18:22:57.778Z,10.50
2023-04-12T18:25:24.265Z,10.82
2023-04-12T18:27:51.368Z,10.39
2023-04-12T18:30:19.477Z,10.72
2023-04-12T18:32:46.488Z,10.33
2023-04-12T18:35:12.844Z,10.32
2023-04-12T18:37:41.091Z,10.22
2023-04-12T18:40:07.637Z,10.27
2023-04-12T18:42:34.748Z,10.42
2023-04-12T18:45:02.339Z,10.62
2023-04-12T18:47:28.818Z,10.33
2023-04-12T18:49:55.201Z,10.19
2023-04-12T18:52:21.599Z,10.28
2023-04-12T18:54:47.990Z,10.28
2023-04-12T18:57:15.884Z,10.36
2023-04-12T18:59:42.419Z,10.35
2023-04-12T19:02:09.334Z,10.30
2023-04-12T19:04:37.044Z,10.39
2023-04-12T19:07:03.439Z,10.33
2023-04-12T19:09:29.933Z,10.44
2023-04-12T19:11:57.266Z,10.41
2023-04-12T19:14:25.174Z,10.40
2023-04-12T19:16:53.034Z,10.30
2023-04-12T19:19:19.386Z,10.27
2023-04-12T19:21:45.942Z,10.18
2023-04-12T19:24:12.335Z,10.15
2023-04-12T19:26:45.440Z,10.09
2023-04-12T19:29:14.859Z,10.10
2023-04-12T19:31:43.281Z,10.09
2023-04-12T19:34:09.858Z,10.11
2023-04-12T19:36:36.748Z,10.14
2023-04-12T19:39:03.392Z,10.20
2023-04-12T19:41:29.784Z,10.12
2023-04-12T19:43:56.817Z,10.14
2023-04-12T19:46:25.713Z,9.99
2023-04-12T19:48:53.400Z,10.05
2023-04-12T19:51:19.738Z,10.04
2023-04-12T19:53:51.170Z,10.04
2023-04-12T19:56:17.483Z,10.02
2023-04-12T19:58:45.871Z,10.01
2023-04-12T20:01:13.654Z,9.96
2023-04-12T20:03:43.671Z,9.87
2023-04-12T20:06:10.986Z,9.86
2023-04-12T20:08:37.512Z,9.88
2023-04-12T20:11:03.942Z,9.86
2023-04-12T20:13:31.306Z,9.89
2023-04-12T20:16:00.833Z,9.80
2023-04-12T20:18:29.709Z,9.69
2023-04-12T20:20:57.920Z,9.94
2023-04-12T20:23:25.737Z,9.63
2023-04-12T20:25:52.160Z,9.80
2023-04-12T20:28:19.773Z,9.83
2023-04-12T20:30:48.113Z,9.82
2023-04-12T20:33:15.078Z,9.87
2023-04-12T20:35:42.500Z,9.83
2023-04-12T20:38:08.985Z,9.80
2023-04-12T20:40:35.845Z,9.78
2023-04-12T20:43:03.389Z,9.77
2023-04-12T20:45:29.984Z,9.86
2023-04-12T20:47:56.529Z,9.91
2023-04-12T20:50:24.519Z,9.94
2023-04-12T20:52:52.178Z,9.87
2023-04-12T20:55:18.842Z,9.79
2023-04-12T20:57:45.281Z,9.80
2023-04-12T21:00:17.858Z,9.81
2023-04-12T21:02:48.731Z,9.74
2023-04-12T21:05:17.001Z,9.72
2023-04-12T21:07:43.600Z,9.63
2023-04-12T21:10:12.592Z,9.55
2023-04-12T21:12:39.715Z,9.55
2023-04-12T21:15:07.519Z,9.56
2023-04-12T21:17:35.428Z,9.59
2023-04-12T21:20:07.245Z,9.58
2023-04-12T21:22:33.566Z,9.55
2023-04-12T21:25:01.112Z,9.55
2023-04-12T21:27:27.775Z,9.47
2023-04-12T21:29:54.651Z,9.43
2023-04-12T21:32:21.279Z,9.40
2023-04-12T21:34:50.097Z,9.48
2023-04-12T21:37:18.426Z,9.49
2023-04-12T21:39:44.881Z,9.46
2023-04-12T21:42:11.295Z,9.37
2023-04-12T21:44:39.564Z,9.42
2023-04-12T21:47:06.623Z,9.46
2023-04-12T21:49:34.334Z,9.29
2023-04-12T21:52:00.690Z,9.13
2023-04-12T21:54:31.366Z,9.15
2023-04-12T21:56:58.269Z,9.13
2023-04-12T21:59:25.623Z,9.06
2023-04-12T22:01:52.249Z,9.07
2023-04-12T22:04:19.248Z,9.01
2023-04-12T22:06:48.186Z,8.99
2023-04-12T22:09:14.544Z,8.99
2023-04-12T22:11:40.900Z,9.06
2023-04-12T22:14:15.297Z,8.98
2023-04-12T22:16:41.884Z,9.05
2023-04-12T22:19:08.494Z,9.08
2023-04-12T22:21:35.847Z,9.09
2023-04-12T22:24:02.352Z,8.97
2023-04-12T22:26:31.416Z,9.07
2023-04-12T22:28:58.211Z,9.02
2023-04-12T22:31:26.105Z,9.00
2023-04-12T22:33:54.940Z,9.01
2023-04-12T22:36:21.852Z,8.99
2023-04-12T22:38:48.924Z,8.97
2023-04-12T22:41:15.828Z,8.92
2023-04-12T22:43:42.507Z,8.90
2023-04-12T22:46:16.060Z,8.89
2023-04-12T22:48:47.673Z,8.96
2023-04-12T22:51:14.389Z,8.90
2023-04-12T22:53:40.892Z,8.87
2023-04-12T22:56:09.440Z,8.81
2023-04-12T22:58:36.971Z,8.77
2023-04-12T23:01:06.539Z,8.76
2023-04-12T23:03:32.997Z,8.75
2023-04-12T23:06:00.148Z,8.77
2023-04-12T23:08:26.487Z,8.75
2023-04-12T23:10:53.263Z,8.75
2023-04-12T23:13:19.665Z,8.76
2023-04-12T23:15:47.050Z,8.79
2023-04-12T23:18:16.165Z,8.76
2023-04-12T23:20:44.790Z,8.76
2023-04-12T23:23:11.160Z,8.76
2023-04-12T23:25:44.728Z,8.72
2023-04-12T23:28:15.797Z,8.74
2023-04-12T23:30:43.283Z,8.73
2023-04-12T23:33:12.075Z,8.66
2023-04-12T23:35:39.196Z,8.74
2023-04-12T23:38:05.701Z,8.69
2023-04-12T23:40:32.036Z,8.69
2023-04-12T23:42:58.676Z,8.61
2023-04-12T23:45:25.099Z,8.63
2023-04-12T23:47:51.705Z,8.61
2023-04-12T23:50:18.221Z,8.61
2023-04-12T23:52:44.944Z,8.66
2023-04-12T23:55:11.263Z,8.69
2023-04-12T23:57:37.577Z,8.62
